WAT2067 LYTV-BKPR
Flight info
| Callsign | WAT2067 |
|---|---|
| Flight time | 0h 34m |
| Altitude | 23000 |
| Route | NIK DCT MEDUX MEDUX1D |
| Aircraft | B738/M-SDE2E3FGHIRWXY/LB1 |
Departure
| Time | 2026-04-20 21:51 |
|---|---|
| Airport | Tivat Airport (LYTV) |
Arrival
| Time | 2026-04-20 22:25 |
|---|---|
| Airport | Priština Adem Jashari International Airport (BKPR) |
| Time | Latitude | Longitude | Altitude | Speed | Heading |
|---|---|---|---|---|---|
| 2026-04-20 21:34 | 42.41158 | 18.71749 | 7 ft | 0 kts | 173° |
| 2026-04-20 21:43 | 42.41157 | 18.71749 | 7 ft | 0 kts | 173° |
| 2026-04-20 21:44 | 42.41122 | 18.71777 | 6 ft | 10 kts | 142° |
| 2026-04-20 21:44 | 42.41069 | 18.71833 | 7 ft | 10 kts | 142° |
| 2026-04-20 21:44 | 42.41007 | 18.71849 | 6 ft | 10 kts | 197° |
| 2026-04-20 21:45 | 42.40996 | 18.71841 | 6 ft | 0 kts | 215° |
| 2026-04-20 21:45 | 42.40996 | 18.71840 | 6 ft | 1 kts | 215° |
| 2026-04-20 21:45 | 42.40962 | 18.71815 | 5 ft | 9 kts | 193° |
| 2026-04-20 21:45 | 42.40896 | 18.71833 | 4 ft | 10 kts | 155° |
| 2026-04-20 21:46 | 42.40832 | 18.71896 | 2 ft | 13 kts | 136° |
| 2026-04-20 21:46 | 42.40762 | 18.71979 | 2 ft | 13 kts | 140° |
| 2026-04-20 21:46 | 42.40694 | 18.72058 | 0 ft | 13 kts | 139° |
| 2026-04-20 21:46 | 42.40627 | 18.72136 | -1 ft | 12 kts | 139° |
| 2026-04-20 21:47 | 42.40564 | 18.72213 | 1 ft | 12 kts | 138° |
| 2026-04-20 21:47 | 42.40502 | 18.72287 | 1 ft | 12 kts | 139° |
| 2026-04-20 21:47 | 42.40440 | 18.72359 | 1 ft | 12 kts | 138° |
| 2026-04-20 21:47 | 42.40380 | 18.72429 | 4 ft | 11 kts | 139° |
| 2026-04-20 21:48 | 42.40322 | 18.72497 | 5 ft | 11 kts | 139° |
| 2026-04-20 21:48 | 42.40241 | 18.72592 | 4 ft | 19 kts | 139° |
| 2026-04-20 21:48 | 42.40141 | 18.72708 | 4 ft | 19 kts | 139° |
| 2026-04-20 21:48 | 42.40044 | 18.72822 | 0 ft | 19 kts | 139° |
| 2026-04-20 21:49 | 42.39948 | 18.72934 | 0 ft | 18 kts | 139° |
| 2026-04-20 21:49 | 42.39855 | 18.73042 | -1 ft | 17 kts | 139° |
| 2026-04-20 21:49 | 42.39765 | 18.73146 | 1 ft | 17 kts | 139° |
| 2026-04-20 21:49 | 42.39682 | 18.73226 | 1 ft | 11 kts | 154° |
| 2026-04-20 21:50 | 42.39618 | 18.73270 | 2 ft | 9 kts | 126° |
| 2026-04-20 21:50 | 42.39632 | 18.73318 | 3 ft | 4 kts | 347° |
| 2026-04-20 21:50 | 42.39658 | 18.73283 | 2 ft | 10 kts | 313° |
| 2026-04-20 21:50 | 42.39936 | 18.72942 | 0 ft | 99 kts | 319° |
| 2026-04-20 21:51 | 42.40661 | 18.72093 | 63 ft | 168 kts | 319° |
| 2026-04-20 21:51 | 42.41518 | 18.71054 | 1017 ft | 166 kts | 320° |
| 2026-04-20 21:51 | 42.42210 | 18.69661 | 1603 ft | 199 kts | 278° |
| 2026-04-20 21:51 | 42.41963 | 18.67749 | 2001 ft | 221 kts | 233° |
| 2026-04-20 21:52 | 42.41230 | 18.66804 | 2360 ft | 221 kts | 206° |
| 2026-04-20 21:52 | 42.39881 | 18.65757 | 3127 ft | 229 kts | 213° |
| 2026-04-20 21:52 | 42.38588 | 18.64475 | 4100 ft | 226 kts | 214° |
| 2026-04-20 21:52 | 42.37340 | 18.63221 | 5128 ft | 225 kts | 217° |
| 2026-04-20 21:53 | 42.36084 | 18.61914 | 5983 ft | 227 kts | 219° |
| 2026-04-20 21:53 | 42.34823 | 18.60581 | 6823 ft | 232 kts | 220° |
| 2026-04-20 21:53 | 42.33555 | 18.59220 | 7649 ft | 235 kts | 218° |
| 2026-04-20 21:53 | 42.32016 | 18.58456 | 8418 ft | 245 kts | 182° |
| 2026-04-20 21:54 | 42.30304 | 18.58683 | 9227 ft | 251 kts | 176° |
| 2026-04-20 21:54 | 42.28555 | 18.58985 | 9966 ft | 256 kts | 176° |
| 2026-04-20 21:54 | 42.26774 | 18.59342 | 10679 ft | 263 kts | 168° |
| 2026-04-20 21:54 | 42.25166 | 18.60594 | 11357 ft | 277 kts | 134° |
| 2026-04-20 21:55 | 42.24223 | 18.62892 | 11917 ft | 291 kts | 101° |
| 2026-04-20 21:55 | 42.24325 | 18.65622 | 12486 ft | 297 kts | 69° |
| 2026-04-20 21:55 | 42.25064 | 18.68232 | 13240 ft | 299 kts | 65° |
| 2026-04-20 21:55 | 42.25815 | 18.70876 | 13973 ft | 304 kts | 66° |
| 2026-04-20 21:56 | 42.26539 | 18.73570 | 14650 ft | 308 kts | 67° |
| 2026-04-20 21:56 | 42.27245 | 18.76278 | 15346 ft | 311 kts | 66° |
| 2026-04-20 21:56 | 42.28315 | 18.78771 | 15969 ft | 305 kts | 39° |
| 2026-04-20 21:56 | 42.30037 | 18.80386 | 16434 ft | 306 kts | 17° |
| 2026-04-20 21:57 | 42.32104 | 18.81156 | 16809 ft | 312 kts | 5° |
| 2026-04-20 21:57 | 42.34253 | 18.81654 | 17493 ft | 314 kts | 4° |
| 2026-04-20 21:57 | 42.36430 | 18.82145 | 18230 ft | 319 kts | 4° |
| 2026-04-20 21:57 | 42.38627 | 18.82658 | 18856 ft | 324 kts | 4° |
| 2026-04-20 21:58 | 42.40909 | 18.83204 | 19019 ft | 343 kts | 5° |
| 2026-04-20 21:58 | 42.43325 | 18.83798 | 19173 ft | 362 kts | 5° |
| 2026-04-20 21:58 | 42.45871 | 18.84432 | 19289 ft | 381 kts | 5° |
| 2026-04-20 21:58 | 42.48535 | 18.85100 | 19418 ft | 397 kts | 5° |
| 2026-04-20 21:59 | 42.51310 | 18.85796 | 19535 ft | 413 kts | 5° |
| 2026-04-20 21:59 | 42.54185 | 18.86519 | 19727 ft | 425 kts | 6° |
| 2026-04-20 21:59 | 42.57112 | 18.87256 | 20146 ft | 430 kts | 5° |
| 2026-04-20 21:59 | 42.60057 | 18.88000 | 20704 ft | 431 kts | 5° |
| 2026-04-20 22:00 | 42.63010 | 18.88737 | 21240 ft | 432 kts | 5° |
| 2026-04-20 22:00 | 42.65953 | 18.89437 | 21652 ft | 436 kts | 4° |
| 2026-04-20 22:00 | 42.68957 | 18.90174 | 22051 ft | 442 kts | 6° |
| 2026-04-20 22:00 | 42.71944 | 18.91619 | 22441 ft | 459 kts | 25° |
| 2026-04-20 22:01 | 42.74449 | 18.94267 | 23030 ft | 470 kts | 41° |
| 2026-04-20 22:01 | 42.76394 | 18.97958 | 23017 ft | 491 kts | 61° |
| 2026-04-20 22:01 | 42.77441 | 19.02435 | 23027 ft | 507 kts | 80° |
| 2026-04-20 22:01 | 42.77517 | 19.07260 | 23058 ft | 512 kts | 94° |
| 2026-04-20 22:02 | 42.77181 | 19.12086 | 23022 ft | 512 kts | 96° |
| 2026-04-20 22:02 | 42.76891 | 19.16912 | 23012 ft | 511 kts | 92° |
| 2026-04-20 22:02 | 42.76741 | 19.21728 | 23033 ft | 509 kts | 91° |
| 2026-04-20 22:02 | 42.76660 | 19.26544 | 23025 ft | 509 kts | 90° |
| 2026-04-20 22:03 | 42.76597 | 19.31361 | 23030 ft | 508 kts | 89° |
| 2026-04-20 22:03 | 42.76525 | 19.36161 | 22997 ft | 507 kts | 90° |
| 2026-04-20 22:03 | 42.76436 | 19.40955 | 23045 ft | 506 kts | 90° |
| 2026-04-20 22:03 | 42.76333 | 19.45746 | 23038 ft | 509 kts | 90° |
| 2026-04-20 22:04 | 42.76216 | 19.50562 | 23037 ft | 510 kts | 90° |
| 2026-04-20 22:04 | 42.76094 | 19.55391 | 23022 ft | 511 kts | 90° |
| 2026-04-20 22:04 | 42.75968 | 19.60230 | 23028 ft | 511 kts | 90° |
| 2026-04-20 22:04 | 42.75840 | 19.65071 | 23026 ft | 512 kts | 90° |
| 2026-04-20 22:05 | 42.75710 | 19.69909 | 23001 ft | 512 kts | 90° |
| 2026-04-20 22:05 | 42.75579 | 19.74683 | 23028 ft | 511 kts | 90° |
| 2026-04-20 22:05 | 42.75446 | 19.79512 | 23030 ft | 510 kts | 90° |
| 2026-04-20 22:05 | 42.75312 | 19.84342 | 23025 ft | 511 kts | 90° |
| 2026-04-20 22:06 | 42.75177 | 19.89167 | 23013 ft | 510 kts | 90° |
| 2026-04-20 22:06 | 42.75038 | 19.93983 | 23013 ft | 509 kts | 90° |
| 2026-04-20 22:06 | 42.74898 | 19.98796 | 23020 ft | 509 kts | 90° |
| 2026-04-20 22:06 | 42.74657 | 20.03602 | 22993 ft | 510 kts | 97° |
| 2026-04-20 22:07 | 42.73847 | 20.08309 | 23015 ft | 510 kts | 105° |
| 2026-04-20 22:07 | 42.72818 | 20.12938 | 23016 ft | 511 kts | 107° |
| 2026-04-20 22:07 | 42.71747 | 20.17545 | 23013 ft | 511 kts | 107° |
| 2026-04-20 22:07 | 42.70691 | 20.22161 | 22992 ft | 512 kts | 106° |
| 2026-04-20 22:08 | 42.69667 | 20.26799 | 23001 ft | 511 kts | 105° |
| 2026-04-20 22:08 | 42.68682 | 20.31405 | 22523 ft | 503 kts | 105° |
| 2026-04-20 22:08 | 42.67739 | 20.35890 | 21869 ft | 496 kts | 104° |
| 2026-04-20 22:08 | 42.66803 | 20.40372 | 21206 ft | 489 kts | 104° |
| 2026-04-20 22:09 | 42.65878 | 20.44789 | 20542 ft | 483 kts | 104° |
| 2026-04-20 22:09 | 42.64959 | 20.49157 | 19892 ft | 478 kts | 105° |
| 2026-04-20 22:09 | 42.64047 | 20.53476 | 19240 ft | 473 kts | 105° |
| 2026-04-20 22:09 | 42.63145 | 20.57734 | 18611 ft | 468 kts | 105° |
| 2026-04-20 22:10 | 42.62242 | 20.61973 | 17912 ft | 464 kts | 105° |
| 2026-04-20 22:10 | 42.61347 | 20.66171 | 17220 ft | 459 kts | 105° |
| 2026-04-20 22:10 | 42.60452 | 20.70363 | 16566 ft | 454 kts | 105° |
| 2026-04-20 22:10 | 42.59590 | 20.74405 | 15934 ft | 449 kts | 105° |
| 2026-04-20 22:11 | 42.58726 | 20.78450 | 15302 ft | 444 kts | 105° |
| 2026-04-20 22:11 | 42.57870 | 20.82451 | 14704 ft | 439 kts | 105° |
| 2026-04-20 22:11 | 42.57021 | 20.86409 | 14054 ft | 435 kts | 105° |
| 2026-04-20 22:11 | 42.56180 | 20.90327 | 13410 ft | 429 kts | 105° |
| 2026-04-20 22:12 | 42.55349 | 20.94204 | 12786 ft | 423 kts | 105° |
| 2026-04-20 22:12 | 42.54525 | 20.98025 | 12086 ft | 420 kts | 106° |
| 2026-04-20 22:12 | 42.53718 | 21.01745 | 11769 ft | 397 kts | 106° |
| 2026-04-20 22:12 | 42.52965 | 21.05226 | 11579 ft | 374 kts | 106° |
| 2026-04-20 22:13 | 42.52252 | 21.08515 | 11390 ft | 355 kts | 106° |
| 2026-04-20 22:13 | 42.51569 | 21.11661 | 11218 ft | 341 kts | 106° |
| 2026-04-20 22:13 | 42.50909 | 21.14703 | 11071 ft | 331 kts | 107° |
| 2026-04-20 22:13 | 42.50259 | 21.17688 | 10950 ft | 331 kts | 107° |
| 2026-04-20 22:14 | 42.49615 | 21.20644 | 10801 ft | 320 kts | 107° |
| 2026-04-20 22:14 | 42.48979 | 21.23425 | 10653 ft | 305 kts | 113° |
| 2026-04-20 22:14 | 42.47835 | 21.25737 | 10413 ft | 291 kts | 138° |
| 2026-04-20 22:14 | 42.46312 | 21.27457 | 10193 ft | 279 kts | 146° |
| 2026-04-20 22:15 | 42.44763 | 21.28983 | 10069 ft | 271 kts | 147° |
| 2026-04-20 22:15 | 42.43250 | 21.30467 | 9910 ft | 269 kts | 147° |
| 2026-04-20 22:15 | 42.41715 | 21.31997 | 9654 ft | 280 kts | 146° |
| 2026-04-20 22:15 | 42.40125 | 21.33599 | 9353 ft | 285 kts | 146° |
| 2026-04-20 22:16 | 42.38550 | 21.35189 | 9099 ft | 277 kts | 147° |
| 2026-04-20 22:16 | 42.36867 | 21.36287 | 8969 ft | 264 kts | 172° |
| 2026-04-20 22:16 | 42.35108 | 21.36346 | 8918 ft | 254 kts | 195° |
| 2026-04-20 22:16 | 42.33559 | 21.35334 | 8619 ft | 246 kts | 223° |
| 2026-04-20 22:17 | 42.32422 | 21.33642 | 8381 ft | 241 kts | 235° |
| 2026-04-20 22:17 | 42.31428 | 21.31839 | 8241 ft | 236 kts | 236° |
| 2026-04-20 22:17 | 42.30466 | 21.30083 | 8127 ft | 229 kts | 235° |
| 2026-04-20 22:17 | 42.29525 | 21.28385 | 8031 ft | 222 kts | 235° |
| 2026-04-20 22:18 | 42.28752 | 21.26609 | 7919 ft | 220 kts | 257° |
| 2026-04-20 22:18 | 42.28756 | 21.24560 | 7772 ft | 224 kts | 285° |
| 2026-04-20 22:18 | 42.29465 | 21.22698 | 7542 ft | 225 kts | 306° |
| 2026-04-20 22:18 | 42.30477 | 21.21096 | 7318 ft | 224 kts | 309° |
| 2026-04-20 22:19 | 42.31521 | 21.19534 | 7085 ft | 224 kts | 310° |
| 2026-04-20 22:19 | 42.32556 | 21.17990 | 6873 ft | 219 kts | 309° |
| 2026-04-20 22:19 | 42.33560 | 21.16482 | 6639 ft | 213 kts | 309° |
| 2026-04-20 22:19 | 42.34529 | 21.15016 | 6412 ft | 206 kts | 309° |
| 2026-04-20 22:20 | 42.35462 | 21.13600 | 6173 ft | 196 kts | 308° |
| 2026-04-20 22:20 | 42.36353 | 21.12246 | 5954 ft | 188 kts | 307° |
| 2026-04-20 22:20 | 42.37200 | 21.10950 | 5731 ft | 180 kts | 307° |
| 2026-04-20 22:20 | 42.38019 | 21.09696 | 5541 ft | 176 kts | 307° |
| 2026-04-20 22:21 | 42.38832 | 21.08452 | 5370 ft | 177 kts | 308° |
| 2026-04-20 22:21 | 42.39653 | 21.07194 | 5195 ft | 179 kts | 308° |
| 2026-04-20 22:21 | 42.40486 | 21.05935 | 5006 ft | 180 kts | 313° |
| 2026-04-20 22:21 | 42.41618 | 21.05238 | 4789 ft | 186 kts | 354° |
| 2026-04-20 22:22 | 42.42911 | 21.05143 | 4632 ft | 188 kts | 348° |
| 2026-04-20 22:22 | 42.44173 | 21.04918 | 4494 ft | 178 kts | 351° |
| 2026-04-20 22:22 | 42.45410 | 21.04794 | 4230 ft | 178 kts | 353° |
| 2026-04-20 22:22 | 42.46631 | 21.04676 | 3962 ft | 175 kts | 353° |
| 2026-04-20 22:23 | 42.47833 | 21.04553 | 3693 ft | 172 kts | 354° |
| 2026-04-20 22:23 | 42.49024 | 21.04432 | 3436 ft | 170 kts | 354° |
| 2026-04-20 22:23 | 42.50194 | 21.04313 | 3167 ft | 167 kts | 355° |
| 2026-04-20 22:23 | 42.51383 | 21.04190 | 2910 ft | 179 kts | 356° |
| 2026-04-20 22:24 | 42.52657 | 21.04061 | 2581 ft | 187 kts | 356° |
| 2026-04-20 22:24 | 42.53952 | 21.03928 | 2271 ft | 185 kts | 356° |
| 2026-04-20 22:24 | 42.55218 | 21.03793 | 1971 ft | 180 kts | 356° |
| 2026-04-20 22:24 | 42.56429 | 21.03670 | 1812 ft | 168 kts | 356° |
| 2026-04-20 22:25 | 42.57486 | 21.03568 | 1793 ft | 137 kts | 356° |
| 2026-04-20 22:25 | 42.58291 | 21.03498 | 1792 ft | 64 kts | 357° |
| 2026-04-20 22:25 | 42.58445 | 21.03451 | 1799 ft | 20 kts | 308° |
| 2026-04-20 22:25 | 42.58403 | 21.03281 | 1798 ft | 16 kts | 227° |
| 2026-04-20 22:26 | 42.58287 | 21.03240 | 1794 ft | 20 kts | 175° |
| 2026-04-20 22:26 | 42.58134 | 21.03258 | 1791 ft | 24 kts | 175° |
| 2026-04-20 22:26 | 42.57960 | 21.03278 | 1787 ft | 25 kts | 175° |
| 2026-04-20 22:27 | 42.57726 | 21.03225 | 1786 ft | 15 kts | 205° |
| 2026-04-20 22:27 | 42.57626 | 21.03214 | 1786 ft | 14 kts | 171° |
| 2026-04-20 22:27 | 42.57577 | 21.03197 | 1785 ft | 6 kts | 228° |
| 2026-04-20 22:27 | 42.57565 | 21.03146 | 1786 ft | 6 kts | 262° |
| 2026-04-20 22:28 | 42.57563 | 21.03116 | 1786 ft | 0 kts | 264° |
| 2026-04-20 22:28 | 42.57562 | 21.03106 | 1786 ft | 0 kts | 264° |